createdAt,value
2019-06-15T00:01:13.179Z,98496.55
2019-06-15T00:03:40.673Z,98493.81
2019-06-15T00:06:07.528Z,98494.56
2019-06-15T00:08:35.038Z,98478.98
2019-06-15T00:11:02.483Z,98509.74
2019-06-15T00:13:29.162Z,98473.34
2019-06-15T00:15:56.769Z,98470.23
2019-06-15T00:18:23.585Z,98464.94
2019-06-15T00:20:51.214Z,98458.24
2019-06-15T00:23:18.313Z,98459.95
2019-06-15T00:25:46.059Z,98453.41
2019-06-15T00:28:13.474Z,98451.80
2019-06-15T00:30:40.225Z,98422.47
2019-06-15T00:33:07.864Z,98458.67
2019-06-15T00:35:35.628Z,98454.04
2019-06-15T00:38:03.293Z,98452.55
2019-06-15T00:40:30.915Z,98451.05
2019-06-15T00:42:58.632Z,98457.92
2019-06-15T00:45:25.984Z,98445.00
2019-06-15T00:47:52.780Z,98450.38
2019-06-15T00:50:20.576Z,98448.76
2019-06-15T00:52:48.242Z,98447.15
2019-06-15T00:55:15.273Z,98441.21
2019-06-15T00:57:42.599Z,98430.39
2019-06-15T01:00:10.526Z,98428.12
2019-06-15T01:02:38.033Z,98419.33
2019-06-15T01:05:06.652Z,98418.48
2019-06-15T01:07:34.592Z,98406.98
2019-06-15T01:10:02.311Z,98404.16
2019-06-15T01:12:29.029Z,98404.91
2019-06-15T01:14:56.865Z,98397.39
2019-06-15T01:17:24.766Z,98398.24
2019-06-15T01:19:52.245Z,98394.73
2019-06-15T01:22:19.774Z,98395.50
2019-06-15T01:24:47.281Z,98389.20
2019-06-15T01:27:14.793Z,98382.97
2019-06-15T01:29:42.225Z,98382.69
2019-06-15T01:32:09.171Z,98375.06
2019-06-15T01:34:36.066Z,98373.53
2019-06-15T01:37:03.275Z,98355.84
2019-06-15T01:39:30.006Z,98360.73
2019-06-15T01:41:57.756Z,98358.84
2019-06-15T01:44:24.478Z,98364.86
2019-06-15T01:46:52.085Z,98355.66
2019-06-15T01:49:18.714Z,98360.99
2019-06-15T01:51:46.113Z,98356.11
2019-06-15T01:54:13.524Z,98368.06
2019-06-15T01:56:41.218Z,98355.83
2019-06-15T01:59:08.034Z,98356.28
2019-06-15T02:01:35.635Z,98339.89
2019-06-15T02:04:03.017Z,98343.20
2019-06-15T02:06:30.776Z,98335.17
2019-06-15T02:08:57.380Z,98343.17
2019-06-15T02:11:25.123Z,98338.94
2019-06-15T02:13:51.837Z,98333.20
2019-06-15T02:16:19.537Z,98326.02
2019-06-15T02:18:46.836Z,98320.38
2019-06-15T02:21:14.272Z,98323.03
2019-06-15T02:23:41.127Z,98331.87
2019-06-15T02:26:08.755Z,98325.27
2019-06-15T02:28:36.572Z,98316.63
2019-06-15T02:31:04.298Z,98319.13
2019-06-15T02:33:31.725Z,98304.73
2019-06-15T02:35:59.114Z,98303.88
2019-06-15T02:38:26.706Z,98288.91
2019-06-15T02:40:54.227Z,98290.33
2019-06-15T02:43:21.797Z,98106.70
2019-06-15T02:45:49.564Z,98282.84
2019-06-15T02:48:17.270Z,98281.34
2019-06-15T02:50:44.865Z,98264.11
2019-06-15T02:53:12.770Z,98275.02
2019-06-15T02:55:50.192Z,98275.95
2019-06-15T02:58:09.946Z,98279.82
2019-06-15T03:00:46.801Z,98269.82
2019-06-15T03:03:15.744Z,98274.06
2019-06-15T03:05:43.155Z,98251.84
2019-06-15T03:08:10.697Z,98243.37
2019-06-15T03:10:38.056Z,98261.88
2019-06-15T03:13:06.239Z,98249.55
2019-06-15T03:15:33.781Z,98259.90
2019-06-15T03:18:01.736Z,98253.41
2019-06-15T03:20:30.109Z,98250.47
2019-06-15T03:22:57.232Z,98249.63
2019-06-15T03:25:24.706Z,98238.90
2019-06-15T03:27:52.378Z,98233.81
2019-06-15T03:30:20.779Z,98241.92
2019-06-15T03:32:48.489Z,98250.47
2019-06-15T03:35:16.617Z,98247.40
2019-06-15T03:37:44.023Z,98251.16
2019-06-15T03:40:11.828Z,97968.43
2019-06-15T03:42:39.463Z,98248.36
2019-06-15T03:45:07.008Z,98248.36
2019-06-15T03:47:34.558Z,98262.09
2019-06-15T03:50:02.594Z,98247.60
2019-06-15T03:52:30.010Z,98064.91
2019-06-15T03:54:57.433Z,98250.17
2019-06-15T03:57:24.807Z,98252.52
2019-06-15T03:59:52.850Z,98063.25
2019-06-15T04:02:20.399Z,98247.91
2019-06-15T04:04:48.065Z,98249.13
2019-06-15T04:07:15.515Z,98241.41
2019-06-15T04:09:42.946Z,98245.09
2019-06-15T04:12:10.756Z,98245.93
2019-06-15T04:14:38.073Z,98251.97
2019-06-15T04:17:05.345Z,98247.53
2019-06-15T04:19:33.354Z,98256.70
2019-06-15T04:22:00.903Z,98255.87
2019-06-15T04:24:28.555Z,98256.16
2019-06-15T04:26:56.331Z,98244.29
2019-06-15T04:29:24.476Z,98226.30
2019-06-15T04:31:52.090Z,98240.70
2019-06-15T04:34:19.800Z,98255.02
2019-06-15T04:36:47.519Z,98250.98
2019-06-15T04:39:15.580Z,98242.78
2019-06-15T04:41:43.433Z,98246.26
2019-06-15T04:44:10.865Z,98250.77
2019-06-15T04:46:38.753Z,98251.16
2019-06-15T04:49:07.013Z,98255.02
2019-06-15T04:51:34.679Z,98244.56
2019-06-15T04:54:02.474Z,98252.95
2019-06-15T04:56:29.795Z,98254.75
2019-06-15T04:58:57.805Z,98271.13
2019-06-15T05:01:25.335Z,98260.50
2019-06-15T05:03:52.949Z,98271.23
2019-06-15T05:06:20.731Z,98285.36
2019-06-15T05:08:48.325Z,98276.13
2019-06-15T05:11:15.958Z,98256.15
2019-06-15T05:13:43.650Z,98251.06
2019-06-15T05:16:11.071Z,98245.41
2019-06-15T05:18:39.041Z,98255.69
2019-06-15T05:21:06.971Z,98253.14
2019-06-15T05:23:34.592Z,98238.17
2019-06-15T05:26:02.181Z,98254.36
2019-06-15T05:28:30.174Z,98252.30
2019-06-15T05:30:57.691Z,98261.13
2019-06-15T05:33:25.219Z,98253.23
2019-06-15T05:35:52.993Z,98251.91
2019-06-15T05:38:20.630Z,98258.39
2019-06-15T05:40:48.670Z,98245.83
2019-06-15T05:43:16.344Z,98251.95
2019-06-15T05:45:42.984Z,98253.17
2019-06-15T05:48:10.753Z,98258.91
2019-06-15T05:50:38.523Z,98265.98
2019-06-15T05:53:05.450Z,98265.97
2019-06-15T05:55:32.288Z,98272.85
2019-06-15T05:57:59.866Z,98273.77
2019-06-15T06:00:27.289Z,98278.86
2019-06-15T06:02:54.819Z,98264.24
2019-06-15T06:05:22.259Z,98269.41
2019-06-15T06:07:49.749Z,98270.93
2019-06-15T06:10:17.879Z,98272.23
2019-06-15T06:12:45.122Z,98257.13
2019-06-15T06:15:12.861Z,98259.19
2019-06-15T06:17:42.285Z,98214.93
2019-06-15T06:20:08.861Z,98253.19
2019-06-15T06:22:35.841Z,98258.23
2019-06-15T06:25:08.133Z,98255.45
2019-06-15T06:27:36.814Z,98253.91
2019-06-15T06:30:09.175Z,98259.57
2019-06-15T06:32:36.838Z,98260.53
2019-06-15T06:35:04.553Z,98268.97
2019-06-15T06:37:31.752Z,98273.37
2019-06-15T06:39:59.731Z,98279.80
2019-06-15T06:42:27.081Z,98289.11
2019-06-15T06:44:54.710Z,98307.56
2019-06-15T06:47:21.937Z,98297.28
2019-06-15T06:49:48.983Z,98302.50
2019-06-15T06:52:15.765Z,98344.34
2019-06-15T06:54:42.801Z,98315.08
2019-06-15T06:57:10.053Z,98308.02
2019-06-15T06:59:37.734Z,98311.70
2019-06-15T07:02:04.876Z,98317.91
2019-06-15T07:04:31.469Z,98307.38
2019-06-15T07:06:58.640Z,98312.59
2019-06-15T07:09:26.179Z,98320.27
2019-06-15T07:11:52.932Z,98318.67
2019-06-15T07:14:20.058Z,98313.58
2019-06-15T07:16:46.694Z,98316.28
2019-06-15T07:19:14.076Z,98321.98
2019-06-15T07:21:41.204Z,98178.28
2019-06-15T07:24:08.263Z,98326.39
2019-06-15T07:26:35.726Z,98330.12
2019-06-15T07:29:03.504Z,98333.39
2019-06-15T07:31:30.942Z,98346.92
2019-06-15T07:33:57.797Z,98352.33
2019-06-15T07:36:24.445Z,98350.56
2019-06-15T07:38:51.490Z,98352.63
2019-06-15T07:41:19.011Z,98357.04
2019-06-15T07:43:45.639Z,98380.99
2019-06-15T07:46:12.803Z,98365.03
2019-06-15T07:48:40.191Z,98379.42
2019-06-15T07:51:07.209Z,98368.86
2019-06-15T07:53:34.257Z,98370.83
2019-06-15T07:56:01.112Z,98378.20
2019-06-15T07:58:28.771Z,98380.47
2019-06-15T08:00:55.973Z,98388.30
2019-06-15T08:03:22.708Z,98390.92
2019-06-15T08:05:49.801Z,98234.05
2019-06-15T08:08:16.972Z,98392.91
2019-06-15T08:10:44.322Z,98407.55
2019-06-15T08:13:11.653Z,98399.77
2019-06-15T08:15:38.846Z,98403.03
2019-06-15T08:18:05.983Z,98267.20
2019-06-15T08:20:33.363Z,98412.66
2019-06-15T08:23:00.904Z,98418.30
2019-06-15T08:25:27.744Z,98417.26
2019-06-15T08:27:54.735Z,98425.39
2019-06-15T08:30:42.023Z,98427.08
2019-06-15T08:33:09.187Z,98435.78
2019-06-15T08:35:36.410Z,98446.92
2019-06-15T08:38:04.386Z,98442.72
2019-06-15T08:40:31.212Z,98446.16
2019-06-15T08:42:58.055Z,98441.05
2019-06-15T08:45:24.823Z,98448.10
2019-06-15T08:47:52.388Z,98466.66
2019-06-15T08:50:19.507Z,98458.95
2019-06-15T08:52:46.379Z,98472.56
2019-06-15T08:55:13.113Z,98464.49
2019-06-15T08:57:40.781Z,98486.84
2019-06-15T09:00:08.368Z,98329.23
2019-06-15T09:02:35.747Z,98468.73
2019-06-15T09:05:07.116Z,98474.13
2019-06-15T09:07:34.369Z,98320.14
2019-06-15T09:10:01.115Z,98474.82
2019-06-15T09:12:28.430Z,98481.40
2019-06-15T09:14:55.129Z,98489.36
2019-06-15T09:17:21.895Z,98500.12
2019-06-15T09:19:49.126Z,98493.80
2019-06-15T09:22:16.074Z,98488.09
2019-06-15T09:24:42.961Z,98495.68
2019-06-15T09:27:14.661Z,98506.79
2019-06-15T09:29:41.568Z,98517.39
2019-06-15T09:32:08.202Z,98525.08
2019-06-15T09:34:34.996Z,98518.32
2019-06-15T09:37:02.077Z,98532.29
2019-06-15T09:39:28.908Z,98532.44
2019-06-15T09:41:55.949Z,98536.91
2019-06-15T09:44:22.884Z,98537.81
2019-06-15T09:46:49.942Z,98542.03
2019-06-15T09:49:17.149Z,98544.33
2019-06-15T09:51:44.156Z,98555.05
2019-06-15T09:54:11.805Z,98562.66
2019-06-15T09:56:39.674Z,98570.70
2019-06-15T09:59:06.924Z,98569.89
2019-06-15T10:01:33.891Z,98584.70
2019-06-15T10:04:00.598Z,98578.30
2019-06-15T10:06:27.952Z,98586.92
2019-06-15T10:08:54.828Z,98586.03
2019-06-15T10:11:21.758Z,98594.73
2019-06-15T10:13:53.596Z,98596.53
2019-06-15T10:16:21.263Z,98604.19
2019-06-15T10:18:48.107Z,98609.13
2019-06-15T10:21:15.327Z,98601.80
2019-06-15T10:23:42.418Z,98610.77
2019-06-15T10:26:09.277Z,98624.30
2019-06-15T10:28:36.019Z,98623.34
2019-06-15T10:31:04.592Z,98631.17
2019-06-15T10:33:32.054Z,98638.09
2019-06-15T10:35:59.600Z,98641.81
2019-06-15T10:38:27.116Z,98638.43
2019-06-15T10:40:54.224Z,98639.91
2019-06-15T10:43:20.951Z,98435.58
2019-06-15T10:45:48.621Z,98643.98
2019-06-15T10:48:15.662Z,98656.95
2019-06-15T10:50:42.299Z,98656.19
2019-06-15T10:53:09.497Z,98660.55
2019-06-15T10:55:36.425Z,98657.91
2019-06-15T10:58:04.047Z,98666.42
2019-06-15T11:00:31.220Z,98660.64
2019-06-15T11:02:57.964Z,98664.28
2019-06-15T11:05:24.882Z,98675.45
2019-06-15T11:07:51.937Z,98679.82
2019-06-15T11:10:40.115Z,98674.09
2019-06-15T11:13:07.726Z,98684.27
2019-06-15T11:15:34.971Z,98678.62
2019-06-15T11:18:01.743Z,98701.14
2019-06-15T11:20:28.495Z,98692.69
2019-06-15T11:22:55.236Z,98702.16
2019-06-15T11:25:21.844Z,98713.26
2019-06-15T11:27:49.523Z,98710.91
2019-06-15T11:30:16.649Z,98711.15
2019-06-15T11:32:43.322Z,98729.41
2019-06-15T11:35:10.243Z,98723.92
2019-06-15T11:37:37.402Z,98729.94
2019-06-15T11:40:06.015Z,98715.42
2019-06-15T11:42:32.835Z,98725.61
2019-06-15T11:44:59.842Z,98725.23
2019-06-15T11:47:26.569Z,98725.69
2019-06-15T11:49:55.103Z,98722.89
2019-06-15T11:52:22.091Z,98735.67
2019-06-15T11:54:49.382Z,98615.98
2019-06-15T11:57:16.103Z,98736.47
2019-06-15T11:59:42.989Z,98736.09
2019-06-15T12:02:10.041Z,98744.37
2019-06-15T12:04:37.873Z,98749.03
2019-06-15T12:07:05.001Z,98755.35
2019-06-15T12:09:32.802Z,98757.13
2019-06-15T12:11:59.776Z,98613.10
2019-06-15T12:14:26.985Z,98750.41
2019-06-15T12:16:53.606Z,98752.72
2019-06-15T12:19:20.438Z,98756.13
2019-06-15T12:21:47.730Z,98744.72
2019-06-15T12:24:14.389Z,98753.56
2019-06-15T12:26:41.429Z,98748.50
2019-06-15T12:29:08.880Z,98759.50
2019-06-15T12:31:35.505Z,98751.94
2019-06-15T12:34:02.468Z,98753.97
2019-06-15T12:36:29.602Z,98756.41
2019-06-15T12:38:56.462Z,98757.69
2019-06-15T12:41:23.414Z,98761.34
2019-06-15T12:43:50.799Z,98755.46
2019-06-15T12:46:18.065Z,98759.38
2019-06-15T12:48:44.885Z,98763.09
2019-06-15T12:51:12.021Z,98758.97
2019-06-15T12:53:39.918Z,98772.47
2019-06-15T12:56:06.774Z,98778.29
2019-06-15T12:58:33.970Z,98781.13
2019-06-15T13:01:03.414Z,98778.92
2019-06-15T13:03:29.788Z,98786.32
2019-06-15T13:05:56.520Z,98787.06
2019-06-15T13:08:23.333Z,98785.86
2019-06-15T13:10:51.163Z,98791.89
2019-06-15T13:13:17.975Z,98783.14
2019-06-15T13:15:44.886Z,98791.04
2019-06-15T13:18:12.694Z,98788.52
2019-06-15T13:20:39.431Z,98796.92
2019-06-15T13:23:06.292Z,98795.81
2019-06-15T13:25:34.796Z,98798.22
2019-06-15T13:28:02.054Z,98804.17
2019-06-15T13:30:29.649Z,98814.64
2019-06-15T13:32:56.612Z,98807.55
2019-06-15T13:35:23.431Z,98812.14
2019-06-15T13:37:50.185Z,98812.37
2019-06-15T13:40:17.601Z,98812.23
2019-06-15T13:42:44.402Z,98808.66
2019-06-15T13:45:12.799Z,98670.97
2019-06-15T13:47:40.161Z,98810.10
2019-06-15T13:50:08.223Z,98815.14
2019-06-15T13:52:35.143Z,98817.91
2019-06-15T13:55:02.940Z,98810.30
2019-06-15T13:57:29.904Z,98818.50
2019-06-15T13:59:57.151Z,98816.84
2019-06-15T14:02:24.267Z,98819.67
2019-06-15T14:04:50.910Z,98815.35
2019-06-15T14:07:18.460Z,98809.07
2019-06-15T14:09:45.302Z,98820.78
2019-06-15T14:12:12.057Z,98815.22
2019-06-15T14:14:39.135Z,98825.20
2019-06-15T14:17:05.854Z,98809.22
2019-06-15T14:19:33.398Z,98813.45
2019-06-15T14:22:01.906Z,98812.27
2019-06-15T14:24:28.621Z,98809.95
2019-06-15T14:26:55.432Z,98815.11
2019-06-15T14:29:22.789Z,98818.99
2019-06-15T14:31:50.648Z,98815.97
2019-06-15T14:34:17.933Z,98816.44
2019-06-15T14:36:44.975Z,98821.48
2019-06-15T14:39:11.792Z,98819.82
2019-06-15T14:41:38.748Z,98815.03
2019-06-15T14:44:06.281Z,98663.48
2019-06-15T14:46:33.392Z,98802.88
2019-06-15T14:49:00.426Z,98816.06
2019-06-15T14:51:27.369Z,98666.82
2019-06-15T14:53:56.281Z,98825.44
2019-06-15T14:56:22.956Z,98823.52
2019-06-15T14:58:49.852Z,98818.47
2019-06-15T15:01:17.154Z,98814.52
2019-06-15T15:03:47.111Z,98823.56
2019-06-15T15:06:12.502Z,98811.77
2019-06-15T15:08:39.340Z,98821.52
2019-06-15T15:11:06.773Z,98807.59
2019-06-15T15:13:36.629Z,98812.71
2019-06-15T15:16:03.219Z,98821.45
2019-06-15T15:18:30.072Z,98822.72
2019-06-15T15:20:57.148Z,98820.10
2019-06-15T15:23:24.014Z,98811.61
2019-06-15T15:25:51.016Z,98799.87
2019-06-15T15:28:18.323Z,98811.05
2019-06-15T15:30:45.140Z,98802.22
2019-06-15T15:33:12.058Z,98807.72
2019-06-15T15:35:38.708Z,98797.36
2019-06-15T15:38:06.229Z,98797.36
2019-06-15T15:40:36.321Z,98810.42
2019-06-15T15:43:02.341Z,98793.38
2019-06-15T15:45:29.092Z,98660.04
2019-06-15T15:47:56.960Z,98809.24
2019-06-15T15:50:26.281Z,98810.84
2019-06-15T15:52:53.351Z,98800.36
2019-06-15T15:55:20.988Z,98819.34
2019-06-15T15:57:48.113Z,98807.59
2019-06-15T16:00:26.755Z,98816.08
2019-06-15T16:02:53.115Z,98821.68
2019-06-15T16:05:20.913Z,98821.39
2019-06-15T16:07:47.746Z,98828.55
2019-06-15T16:10:16.056Z,98821.13
2019-06-15T16:12:42.939Z,98826.16
2019-06-15T16:15:10.541Z,98824.53
2019-06-15T16:17:37.521Z,98823.50
2019-06-15T16:20:06.654Z,98836.03
2019-06-15T16:22:33.373Z,98826.89
2019-06-15T16:25:00.487Z,98828.94
2019-06-15T16:27:27.248Z,98836.13
2019-06-15T16:29:56.492Z,98825.29
2019-06-15T16:32:26.232Z,98834.08
2019-06-15T16:34:52.627Z,98836.02
2019-06-15T16:37:19.475Z,98830.52
2019-06-15T16:39:46.885Z,98836.61
2019-06-15T16:42:13.690Z,98827.56
2019-06-15T16:44:41.406Z,98832.57
2019-06-15T16:47:08.685Z,98816.59
2019-06-15T16:49:36.302Z,98818.78
2019-06-15T16:52:06.027Z,98829.48
2019-06-15T16:54:32.241Z,98828.05
2019-06-15T16:56:59.002Z,98830.84
2019-06-15T16:59:26.692Z,98821.64
2019-06-15T17:01:56.006Z,98702.59
2019-06-15T17:04:22.954Z,98822.66
2019-06-15T17:06:49.830Z,98815.56
2019-06-15T17:09:17.628Z,98817.80
2019-06-15T17:11:47.010Z,98820.55
2019-06-15T17:14:13.022Z,98818.20
2019-06-15T17:16:39.837Z,98816.70
2019-06-15T17:19:07.342Z,98825.41
2019-06-15T17:21:34.137Z,98827.72
2019-06-15T17:24:01.581Z,98832.45
2019-06-15T17:26:28.333Z,98852.98
2019-06-15T17:28:56.792Z,98833.88
2019-06-15T17:31:23.452Z,98831.11
2019-06-15T17:33:50.385Z,98835.84
2019-06-15T17:36:18.153Z,98833.89
2019-06-15T17:38:46.274Z,98843.67
2019-06-15T17:41:13.869Z,98838.34
2019-06-15T17:43:41.509Z,98850.77
2019-06-15T17:46:08.344Z,98853.48
2019-06-15T17:48:37.057Z,98678.08
2019-06-15T17:51:06.429Z,98852.17
2019-06-15T17:53:33.775Z,98848.61
2019-06-15T17:56:03.449Z,98853.94
2019-06-15T17:58:30.281Z,98682.49
2019-06-15T18:00:57.674Z,98845.23
2019-06-15T18:03:26.064Z,98846.02
2019-06-15T18:05:53.073Z,98853.10
2019-06-15T18:08:19.913Z,98855.13
2019-06-15T18:10:47.747Z,98855.95
2019-06-15T18:13:16.791Z,98866.82
2019-06-15T18:15:44.171Z,98873.58
2019-06-15T18:18:11.125Z,98878.13
2019-06-15T18:20:37.842Z,98878.70
2019-06-15T18:23:06.018Z,98878.41
2019-06-15T18:25:33.132Z,98888.57
2019-06-15T18:28:00.034Z,98891.39
2019-06-15T18:30:26.948Z,98898.82
2019-06-15T18:32:56.232Z,98895.16
2019-06-15T18:35:23.076Z,98899.53
2019-06-15T18:37:50.772Z,98903.69
2019-06-15T18:40:18.315Z,98907.70
2019-06-15T18:42:46.335Z,98909.46
2019-06-15T18:45:15.869Z,98911.34
2019-06-15T18:47:42.165Z,98915.95
2019-06-15T18:50:10.146Z,98924.82
2019-06-15T18:52:37.887Z,98933.78
2019-06-15T18:55:06.049Z,98929.20
2019-06-15T18:57:32.940Z,98930.84
2019-06-15T18:59:59.986Z,98934.89
2019-06-15T19:02:26.803Z,98933.98
2019-06-15T19:04:56.490Z,98936.20
2019-06-15T19:07:22.416Z,98750.37
2019-06-15T19:09:49.438Z,98942.41
2019-06-15T19:12:18.543Z,98941.51
2019-06-15T19:14:46.921Z,98940.50
2019-06-15T19:17:16.378Z,98937.70
2019-06-15T19:19:42.502Z,98942.83
2019-06-15T19:22:09.523Z,98942.92
2019-06-15T19:24:37.180Z,98951.48
2019-06-15T19:27:04.130Z,98794.59
2019-06-15T19:29:31.031Z,98959.78
2019-06-15T19:31:57.836Z,98969.65
2019-06-15T19:34:41.060Z,98972.33
2019-06-15T19:36:53.578Z,98969.09
2019-06-15T19:39:21.250Z,98974.52
2019-06-15T19:41:47.992Z,98966.53
2019-06-15T19:44:16.411Z,98964.36
2019-06-15T19:46:43.611Z,98968.62
2019-06-15T19:49:11.026Z,98987.05
2019-06-15T19:51:38.651Z,98985.64
2019-06-15T19:54:07.688Z,98833.27
2019-06-15T19:56:36.989Z,98989.59
2019-06-15T19:59:03.534Z,98996.36
2019-06-15T20:01:30.613Z,99002.11
2019-06-15T20:03:57.611Z,99000.74
2019-06-15T20:06:26.040Z,99000.13
2019-06-15T20:08:53.299Z,99007.41
2019-06-15T20:11:20.002Z,99011.91
2019-06-15T20:13:47.457Z,99014.16
2019-06-15T20:16:16.572Z,99010.92
2019-06-15T20:18:43.496Z,99005.44
2019-06-15T20:21:10.342Z,98999.84
2019-06-15T20:23:37.862Z,99000.55
2019-06-15T20:26:06.635Z,99002.48
2019-06-15T20:28:33.730Z,98680.88
2019-06-15T20:31:00.629Z,98997.48
2019-06-15T20:33:27.466Z,98999.38
2019-06-15T20:35:57.219Z,99007.92
2019-06-15T20:38:26.714Z,99010.63
2019-06-15T20:40:53.135Z,99018.84
2019-06-15T20:43:19.989Z,99008.13
2019-06-15T20:45:47.682Z,99006.11
2019-06-15T20:48:14.540Z,98848.27
2019-06-15T20:50:42.232Z,99012.50
2019-06-15T20:53:09.316Z,99016.23
2019-06-15T20:55:37.292Z,99020.39
2019-06-15T20:58:06.514Z,99016.73
2019-06-15T21:00:36.563Z,99031.09
2019-06-15T21:03:03.090Z,98837.52
2019-06-15T21:05:37.698Z,99038.20
2019-06-15T21:07:58.616Z,99039.18
2019-06-15T21:10:26.358Z,99030.94
2019-06-15T21:12:53.717Z,99034.88
2019-06-15T21:15:24.059Z,99035.20
2019-06-15T21:17:53.304Z,99029.80
2019-06-15T21:20:21.179Z,99031.42
2019-06-15T21:22:50.167Z,99049.48
2019-06-15T21:25:17.484Z,99043.08
2019-06-15T21:27:47.433Z,99039.72
2019-06-15T21:30:16.549Z,99033.91
2019-06-15T21:32:47.383Z,99037.48
2019-06-15T21:35:15.658Z,99043.70
2019-06-15T21:37:46.297Z,99040.56
2019-06-15T21:40:15.383Z,99039.23
2019-06-15T21:42:43.416Z,99048.67
2019-06-15T21:45:12.184Z,99057.92
2019-06-15T21:47:39.664Z,99071.08
2019-06-15T21:50:07.710Z,99069.32
2019-06-15T21:52:36.410Z,99062.70
2019-06-15T21:55:08.330Z,99077.70
2019-06-15T21:57:36.541Z,99085.39
2019-06-15T22:00:12.812Z,99096.78
2019-06-15T22:02:41.122Z,99114.71
2019-06-15T22:05:08.953Z,99128.81
2019-06-15T22:07:36.851Z,99123.16
2019-06-15T22:10:08.593Z,99121.19
2019-06-15T22:12:36.600Z,99120.86
2019-06-15T22:15:06.934Z,99126.59
2019-06-15T22:17:37.080Z,99138.09
2019-06-15T22:20:07.086Z,99137.30
2019-06-15T22:22:36.445Z,99143.14
2019-06-15T22:25:06.902Z,99147.30
2019-06-15T22:27:36.237Z,99152.38
2019-06-15T22:30:07.557Z,99194.78
2019-06-15T22:32:33.743Z,99153.63
2019-06-15T22:35:01.958Z,99151.64
2019-06-15T22:37:29.385Z,99147.48
2019-06-15T22:39:57.237Z,99140.63
2019-06-15T22:42:25.535Z,99150.03
2019-06-15T22:44:53.422Z,99160.97
2019-06-15T22:47:21.094Z,99153.34
2019-06-15T22:49:47.927Z,99151.90
2019-06-15T22:52:17.150Z,99163.13
2019-06-15T22:54:46.381Z,99163.72
2019-06-15T22:57:13.550Z,99160.22
2019-06-15T22:59:40.553Z,99166.16
2019-06-15T23:02:08.486Z,99160.17
2019-06-15T23:04:37.194Z,99174.55
2019-06-15T23:07:06.907Z,99174.19
2019-06-15T23:09:36.087Z,99179.97
2019-06-15T23:12:04.081Z,99186.86
2019-06-15T23:14:31.639Z,99184.76
2019-06-15T23:16:59.373Z,99169.31
2019-06-15T23:19:26.317Z,99166.55
2019-06-15T23:21:53.502Z,99167.37
2019-06-15T23:24:21.198Z,99166.67
2019-06-15T23:26:48.775Z,99175.94
2019-06-15T23:29:16.860Z,99178.27
2019-06-15T23:31:46.057Z,99167.08
2019-06-15T23:34:13.545Z,99187.41
2019-06-15T23:36:54.126Z,99180.13
2019-06-15T23:39:12.617Z,99186.92
2019-06-15T23:41:40.275Z,99192.73
2019-06-15T23:44:08.328Z,99189.84
2019-06-15T23:46:36.254Z,99191.00
2019-06-15T23:49:04.030Z,99195.51
2019-06-15T23:51:32.266Z,99196.70
2019-06-15T23:54:00.024Z,99192.34
2019-06-15T23:56:27.992Z,99204.23
2019-06-15T23:58:56.159Z,99195.58
